sensor_id;sensor_type;location;lat;lon;timestamp;temperature;humidity
3075;DHT22;1548;51.716;8.748;2022-10-24T00:00:26;15.20;81.90
3075;DHT22;1548;51.716;8.748;2022-10-24T00:02:52;15.30;81.80
3075;DHT22;1548;51.716;8.748;2022-10-24T00:05:17;15.30;81.90
3075;DHT22;1548;51.716;8.748;2022-10-24T00:07:43;15.20;81.90
3075;DHT22;1548;51.716;8.748;2022-10-24T00:10:11;15.30;81.90
3075;DHT22;1548;51.716;8.748;2022-10-24T00:12:38;15.20;82.00
3075;DHT22;1548;51.716;8.748;2022-10-24T00:15:04;15.20;81.90
3075;DHT22;1548;51.716;8.748;2022-10-24T00:17:30;15.20;81.90
3075;DHT22;1548;51.716;8.748;2022-10-24T00:19:56;15.20;82.00
3075;DHT22;1548;51.716;8.748;2022-10-24T00:22:23;15.10;81.90
3075;DHT22;1548;51.716;8.748;2022-10-24T00:24:49;15.10;82.00
3075;DHT22;1548;51.716;8.748;2022-10-24T00:27:15;15.10;81.90
3075;DHT22;1548;51.716;8.748;2022-10-24T00:29:40;15.10;82.00
3075;DHT22;1548;51.716;8.748;2022-10-24T00:32:06;15.10;81.90
3075;DHT22;1548;51.716;8.748;2022-10-24T00:34:31;15.00;82.00
3075;DHT22;1548;51.716;8.748;2022-10-24T00:36:57;15.00;81.90
3075;DHT22;1548;51.716;8.748;2022-10-24T00:39:23;15.00;82.00
3075;DHT22;1548;51.716;8.748;2022-10-24T00:41:48;15.00;81.90
3075;DHT22;1548;51.716;8.748;2022-10-24T00:46:57;14.90;82.00
3075;DHT22;1548;51.716;8.748;2022-10-24T00:49:29;14.80;82.00
3075;DHT22;1548;51.716;8.748;2022-10-24T00:52:00;14.70;82.00
3075;DHT22;1548;51.716;8.748;2022-10-24T00:54:27;14.80;82.10
3075;DHT22;1548;51.716;8.748;2022-10-24T00:57:05;14.70;82.10
3075;DHT22;1548;51.716;8.748;2022-10-24T00:59:33;14.70;82.20
3075;DHT22;1548;51.716;8.748;2022-10-24T01:01:59;14.80;82.20
3075;DHT22;1548;51.716;8.748;2022-10-24T01:04:25;14.80;82.10
3075;DHT22;1548;51.716;8.748;2022-10-24T01:15:14;14.90;82.00
3075;DHT22;1548;51.716;8.748;2022-10-24T01:17:54;14.90;82.00
3075;DHT22;1548;51.716;8.748;2022-10-24T01:28:38;14.80;81.90
3075;DHT22;1548;51.716;8.748;2022-10-24T01:31:12;14.80;82.00
3075;DHT22;1548;51.716;8.748;2022-10-24T01:33:48;14.80;82.00
3075;DHT22;1548;51.716;8.748;2022-10-24T01:36:20;14.80;82.00
3075;DHT22;1548;51.716;8.748;2022-10-24T01:38:53;14.80;82.00
3075;DHT22;1548;51.716;8.748;2022-10-24T01:41:25;14.80;82.00
3075;DHT22;1548;51.716;8.748;2022-10-24T01:46:46;14.90;82.00
3075;DHT22;1548;51.716;8.748;2022-10-24T01:49:16;15.00;82.00
3075;DHT22;1548;51.716;8.748;2022-10-24T01:51:43;15.10;81.90
3075;DHT22;1548;51.716;8.748;2022-10-24T01:54:11;15.10;81.80
3075;DHT22;1548;51.716;8.748;2022-10-24T01:56:37;15.20;81.60
3075;DHT22;1548;51.716;8.748;2022-10-24T01:59:08;15.30;81.50
3075;DHT22;1548;51.716;8.748;2022-10-24T02:01:57;15.40;81.50
3075;DHT22;1548;51.716;8.748;2022-10-24T02:04:25;15.40;81.40
3075;DHT22;1548;51.716;8.748;2022-10-24T02:06:52;15.40;81.30
3075;DHT22;1548;51.716;8.748;2022-10-24T02:09:19;15.50;81.20
3075;DHT22;1548;51.716;8.748;2022-10-24T02:11:46;15.60;81.00
3075;DHT22;1548;51.716;8.748;2022-10-24T02:14:22;15.60;81.00
3075;DHT22;1548;51.716;8.748;2022-10-24T02:16:50;15.60;81.00
3075;DHT22;1548;51.716;8.748;2022-10-24T02:19:16;15.60;81.00
3075;DHT22;1548;51.716;8.748;2022-10-24T02:24:51;15.50;81.00
3075;DHT22;1548;51.716;8.748;2022-10-24T02:27:23;15.50;81.00
3075;DHT22;1548;51.716;8.748;2022-10-24T02:29:57;15.50;81.00
3075;DHT22;1548;51.716;8.748;2022-10-24T02:32:34;15.30;81.20
3075;DHT22;1548;51.716;8.748;2022-10-24T02:35:02;15.10;81.30
3075;DHT22;1548;51.716;8.748;2022-10-24T02:37:29;15.00;81.50
3075;DHT22;1548;51.716;8.748;2022-10-24T02:39:56;14.90;81.60
3075;DHT22;1548;51.716;8.748;2022-10-24T02:42:24;14.80;81.70
3075;DHT22;1548;51.716;8.748;2022-10-24T02:44:53;14.80;81.70
3075;DHT22;1548;51.716;8.748;2022-10-24T02:47:20;14.70;81.80
3075;DHT22;1548;51.716;8.748;2022-10-24T02:49:46;14.70;81.80
3075;DHT22;1548;51.716;8.748;2022-10-24T02:52:12;14.60;81.80
3075;DHT22;1548;51.716;8.748;2022-10-24T02:54:38;14.60;82.00
3075;DHT22;1548;51.716;8.748;2022-10-24T02:57:04;14.60;82.00
3075;DHT22;1548;51.716;8.748;2022-10-24T02:59:30;14.60;82.00
3075;DHT22;1548;51.716;8.748;2022-10-24T03:01:55;14.50;81.90
3075;DHT22;1548;51.716;8.748;2022-10-24T03:04:21;14.50;81.90
3075;DHT22;1548;51.716;8.748;2022-10-24T03:06:47;14.50;82.00
3075;DHT22;1548;51.716;8.748;2022-10-24T03:09:13;14.50;82.00
3075;DHT22;1548;51.716;8.748;2022-10-24T03:11:38;14.50;82.10
3075;DHT22;1548;51.716;8.748;2022-10-24T03:14:04;14.50;82.10
3075;DHT22;1548;51.716;8.748;2022-10-24T03:16:30;14.40;82.10
3075;DHT22;1548;51.716;8.748;2022-10-24T03:18:56;14.50;82.10
3075;DHT22;1548;51.716;8.748;2022-10-24T03:21:21;14.50;82.10
3075;DHT22;1548;51.716;8.748;2022-10-24T03:23:47;14.50;82.10
3075;DHT22;1548;51.716;8.748;2022-10-24T03:26:12;14.50;82.10
3075;DHT22;1548;51.716;8.748;2022-10-24T03:28:38;14.60;82.10
3075;DHT22;1548;51.716;8.748;2022-10-24T03:31:04;14.60;82.20
3075;DHT22;1548;51.716;8.748;2022-10-24T03:33:30;14.70;82.00
3075;DHT22;1548;51.716;8.748;2022-10-24T03:35:56;14.70;82.20
3075;DHT22;1548;51.716;8.748;2022-10-24T03:38:22;14.80;82.10
3075;DHT22;1548;51.716;8.748;2022-10-24T03:40:48;14.80;81.90
3075;DHT22;1548;51.716;8.748;2022-10-24T03:43:14;15.00;82.00
3075;DHT22;1548;51.716;8.748;2022-10-24T03:45:40;15.00;81.90
3075;DHT22;1548;51.716;8.748;2022-10-24T03:48:06;15.00;81.80
3075;DHT22;1548;51.716;8.748;2022-10-24T03:50:32;15.10;81.80
3075;DHT22;1548;51.716;8.748;2022-10-24T03:52:59;15.10;81.70
3075;DHT22;1548;51.716;8.748;2022-10-24T03:55:26;15.10;81.60
3075;DHT22;1548;51.716;8.748;2022-10-24T03:57:52;15.20;81.60
3075;DHT22;1548;51.716;8.748;2022-10-24T04:00:18;15.20;81.70
3075;DHT22;1548;51.716;8.748;2022-10-24T04:02:44;15.20;81.60
3075;DHT22;1548;51.716;8.748;2022-10-24T04:05:10;15.20;81.60
3075;DHT22;1548;51.716;8.748;2022-10-24T04:07:36;15.10;81.60
3075;DHT22;1548;51.716;8.748;2022-10-24T04:10:01;15.20;81.60
3075;DHT22;1548;51.716;8.748;2022-10-24T04:12:27;15.20;81.60
3075;DHT22;1548;51.716;8.748;2022-10-24T04:14:52;15.10;81.50
3075;DHT22;1548;51.716;8.748;2022-10-24T04:17:18;15.10;81.60
3075;DHT22;1548;51.716;8.748;2022-10-24T04:19:44;15.10;81.60
3075;DHT22;1548;51.716;8.748;2022-10-24T04:22:09;15.10;81.60
3075;DHT22;1548;51.716;8.748;2022-10-24T04:24:35;15.10;81.50
3075;DHT22;1548;51.716;8.748;2022-10-24T04:27:02;15.00;81.50
3075;DHT22;1548;51.716;8.748;2022-10-24T04:29:28;15.00;81.60
3075;DHT22;1548;51.716;8.748;2022-10-24T04:31:53;14.90;81.50
3075;DHT22;1548;51.716;8.748;2022-10-24T04:34:19;14.90;81.60
3075;DHT22;1548;51.716;8.748;2022-10-24T04:36:44;14.90;81.70
3075;DHT22;1548;51.716;8.748;2022-10-24T04:39:10;14.80;81.70
3075;DHT22;1548;51.716;8.748;2022-10-24T04:41:36;14.80;81.70
3075;DHT22;1548;51.716;8.748;2022-10-24T04:44:01;14.80;81.80
3075;DHT22;1548;51.716;8.748;2022-10-24T04:46:27;14.80;81.80
3075;DHT22;1548;51.716;8.748;2022-10-24T04:48:52;14.70;81.80
3075;DHT22;1548;51.716;8.748;2022-10-24T04:51:18;14.70;81.80
3075;DHT22;1548;51.716;8.748;2022-10-24T04:53:43;14.70;81.80
3075;DHT22;1548;51.716;8.748;2022-10-24T04:56:09;14.70;82.00
3075;DHT22;1548;51.716;8.748;2022-10-24T04:58:35;14.70;82.00
3075;DHT22;1548;51.716;8.748;2022-10-24T05:01:00;14.80;81.90
3075;DHT22;1548;51.716;8.748;2022-10-24T05:03:26;14.80;81.90
3075;DHT22;1548;51.716;8.748;2022-10-24T05:05:51;14.80;81.90
3075;DHT22;1548;51.716;8.748;2022-10-24T05:08:17;14.80;81.80
3075;DHT22;1548;51.716;8.748;2022-10-24T05:10:43;14.90;81.90
3075;DHT22;1548;51.716;8.748;2022-10-24T05:13:09;15.00;81.90
3075;DHT22;1548;51.716;8.748;2022-10-24T05:15:34;14.90;81.80
3075;DHT22;1548;51.716;8.748;2022-10-24T05:18:00;15.00;81.70
3075;DHT22;1548;51.716;8.748;2022-10-24T05:20:26;15.00;81.70
3075;DHT22;1548;51.716;8.748;2022-10-24T05:22:52;14.90;81.60
3075;DHT22;1548;51.716;8.748;2022-10-24T05:25:18;14.90;81.80
3075;DHT22;1548;51.716;8.748;2022-10-24T05:27:44;15.00;81.70
3075;DHT22;1548;51.716;8.748;2022-10-24T05:30:10;15.00;81.70
3075;DHT22;1548;51.716;8.748;2022-10-24T05:32:36;15.10;81.60
3075;DHT22;1548;51.716;8.748;2022-10-24T05:35:01;15.10;81.50
3075;DHT22;1548;51.716;8.748;2022-10-24T05:37:27;15.10;81.50
3075;DHT22;1548;51.716;8.748;2022-10-24T05:39:53;15.10;81.50
3075;DHT22;1548;51.716;8.748;2022-10-24T05:42:18;15.20;81.40
3075;DHT22;1548;51.716;8.748;2022-10-24T05:44:44;15.20;81.20
3075;DHT22;1548;51.716;8.748;2022-10-24T05:47:10;15.30;81.00
3075;DHT22;1548;51.716;8.748;2022-10-24T05:49:35;15.30;80.60
3075;DHT22;1548;51.716;8.748;2022-10-24T05:52:01;15.30;80.60
3075;DHT22;1548;51.716;8.748;2022-10-24T05:54:27;15.30;80.70
3075;DHT22;1548;51.716;8.748;2022-10-24T05:56:53;15.40;80.60
3075;DHT22;1548;51.716;8.748;2022-10-24T05:59:19;15.40;80.40
3075;DHT22;1548;51.716;8.748;2022-10-24T06:01:44;15.40;80.30
3075;DHT22;1548;51.716;8.748;2022-10-24T06:04:10;15.40;80.20
3075;DHT22;1548;51.716;8.748;2022-10-24T06:06:40;15.40;80.10
3075;DHT22;1548;51.716;8.748;2022-10-24T06:09:07;15.40;80.20
3075;DHT22;1548;51.716;8.748;2022-10-24T06:11:33;15.40;80.10
3075;DHT22;1548;51.716;8.748;2022-10-24T06:13:58;15.40;80.20
3075;DHT22;1548;51.716;8.748;2022-10-24T06:16:24;15.40;80.00
3075;DHT22;1548;51.716;8.748;2022-10-24T06:18:52;15.50;80.10
3075;DHT22;1548;51.716;8.748;2022-10-24T06:21:17;15.40;80.10
3075;DHT22;1548;51.716;8.748;2022-10-24T06:23:43;15.40;80.10
3075;DHT22;1548;51.716;8.748;2022-10-24T06:26:09;15.40;80.20
3075;DHT22;1548;51.716;8.748;2022-10-24T06:28:36;15.50;80.10
3075;DHT22;1548;51.716;8.748;2022-10-24T06:31:02;15.50;80.10
3075;DHT22;1548;51.716;8.748;2022-10-24T06:33:29;15.60;79.90
3075;DHT22;1548;51.716;8.748;2022-10-24T06:35:58;15.60;79.90
3075;DHT22;1548;51.716;8.748;2022-10-24T06:38:24;15.60;79.80
3075;DHT22;1548;51.716;8.748;2022-10-24T06:40:49;15.60;79.80
3075;DHT22;1548;51.716;8.748;2022-10-24T06:43:15;15.70;79.80
3075;DHT22;1548;51.716;8.748;2022-10-24T06:45:44;15.70;79.70
3075;DHT22;1548;51.716;8.748;2022-10-24T06:48:10;15.70;79.70
3075;DHT22;1548;51.716;8.748;2022-10-24T06:50:36;15.70;79.70
3075;DHT22;1548;51.716;8.748;2022-10-24T06:53:08;15.70;79.70
3075;DHT22;1548;51.716;8.748;2022-10-24T06:55:37;15.70;79.70
3075;DHT22;1548;51.716;8.748;2022-10-24T06:58:03;15.80;79.70
3075;DHT22;1548;51.716;8.748;2022-10-24T07:00:34;15.70;79.60
3075;DHT22;1548;51.716;8.748;2022-10-24T07:03:01;15.80;79.70
3075;DHT22;1548;51.716;8.748;2022-10-24T07:05:27;15.80;79.60
3075;DHT22;1548;51.716;8.748;2022-10-24T07:07:53;15.80;79.70
3075;DHT22;1548;51.716;8.748;2022-10-24T07:10:18;15.80;79.60
3075;DHT22;1548;51.716;8.748;2022-10-24T07:12:44;15.80;79.60
3075;DHT22;1548;51.716;8.748;2022-10-24T07:15:10;15.80;79.60
3075;DHT22;1548;51.716;8.748;2022-10-24T07:17:40;15.90;79.60
3075;DHT22;1548;51.716;8.748;2022-10-24T07:20:06;15.90;79.70
3075;DHT22;1548;51.716;8.748;2022-10-24T07:22:32;15.90;79.70
3075;DHT22;1548;51.716;8.748;2022-10-24T07:24:57;15.90;79.80
3075;DHT22;1548;51.716;8.748;2022-10-24T07:27:23;15.90;79.80
3075;DHT22;1548;51.716;8.748;2022-10-24T07:29:49;16.00;79.70
3075;DHT22;1548;51.716;8.748;2022-10-24T07:32:16;16.00;79.60
3075;DHT22;1548;51.716;8.748;2022-10-24T07:34:42;16.10;79.60
3075;DHT22;1548;51.716;8.748;2022-10-24T07:37:07;16.20;79.50
3075;DHT22;1548;51.716;8.748;2022-10-24T07:39:33;16.20;79.40
3075;DHT22;1548;51.716;8.748;2022-10-24T07:41:58;16.30;79.30
3075;DHT22;1548;51.716;8.748;2022-10-24T07:44:24;16.30;79.20
3075;DHT22;1548;51.716;8.748;2022-10-24T07:46:49;16.40;79.10
3075;DHT22;1548;51.716;8.748;2022-10-24T07:49:15;16.50;79.20
3075;DHT22;1548;51.716;8.748;2022-10-24T07:51:41;16.50;79.00
3075;DHT22;1548;51.716;8.748;2022-10-24T07:54:07;16.50;79.00
3075;DHT22;1548;51.716;8.748;2022-10-24T07:56:33;16.60;79.00
3075;DHT22;1548;51.716;8.748;2022-10-24T07:58:59;16.70;78.90
3075;DHT22;1548;51.716;8.748;2022-10-24T08:01:27;16.70;78.90
3075;DHT22;1548;51.716;8.748;2022-10-24T08:03:53;16.70;78.80
3075;DHT22;1548;51.716;8.748;2022-10-24T08:06:25;16.70;78.80
3075;DHT22;1548;51.716;8.748;2022-10-24T08:08:52;16.80;78.70
3075;DHT22;1548;51.716;8.748;2022-10-24T08:11:24;16.80;78.60
3075;DHT22;1548;51.716;8.748;2022-10-24T08:13:51;16.80;78.60
3075;DHT22;1548;51.716;8.748;2022-10-24T08:16:19;16.80;78.50
3075;DHT22;1548;51.716;8.748;2022-10-24T08:18:45;16.80;78.70
3075;DHT22;1548;51.716;8.748;2022-10-24T08:21:13;16.80;78.60
3075;DHT22;1548;51.716;8.748;2022-10-24T08:23:43;16.90;78.40
3075;DHT22;1548;51.716;8.748;2022-10-24T08:26:12;17.00;78.20
3075;DHT22;1548;51.716;8.748;2022-10-24T08:28:38;17.00;78.20
3075;DHT22;1548;51.716;8.748;2022-10-24T08:31:06;17.00;78.00
3075;DHT22;1548;51.716;8.748;2022-10-24T08:33:33;17.00;78.10
3075;DHT22;1548;51.716;8.748;2022-10-24T08:36:01;17.00;78.10
3075;DHT22;1548;51.716;8.748;2022-10-24T08:38:28;17.00;78.10
3075;DHT22;1548;51.716;8.748;2022-10-24T08:40:54;17.00;77.90
3075;DHT22;1548;51.716;8.748;2022-10-24T08:43:21;17.10;77.80
3075;DHT22;1548;51.716;8.748;2022-10-24T08:48:32;17.10;77.50
3075;DHT22;1548;51.716;8.748;2022-10-24T08:51:12;17.10;77.20
3075;DHT22;1548;51.716;8.748;2022-10-24T08:53:43;17.20;77.10
3075;DHT22;1548;51.716;8.748;2022-10-24T08:56:11;17.40;76.80
3075;DHT22;1548;51.716;8.748;2022-10-24T08:58:42;17.30;76.80
3075;DHT22;1548;51.716;8.748;2022-10-24T09:01:16;17.40;76.60
3075;DHT22;1548;51.716;8.748;2022-10-24T09:03:48;17.50;76.50
3075;DHT22;1548;51.716;8.748;2022-10-24T09:06:24;17.60;76.20
3075;DHT22;1548;51.716;8.748;2022-10-24T09:14:00;18.00;75.60
3075;DHT22;1548;51.716;8.748;2022-10-24T09:16:26;18.00;75.30
3075;DHT22;1548;51.716;8.748;2022-10-24T09:18:53;18.10;75.10
3075;DHT22;1548;51.716;8.748;2022-10-24T09:21:20;18.10;74.90
3075;DHT22;1548;51.716;8.748;2022-10-24T09:23:49;18.20;74.60
3075;DHT22;1548;51.716;8.748;2022-10-24T09:26:27;18.20;74.40
3075;DHT22;1548;51.716;8.748;2022-10-24T09:28:55;18.30;74.40
3075;DHT22;1548;51.716;8.748;2022-10-24T09:31:23;18.40;74.10
3075;DHT22;1548;51.716;8.748;2022-10-24T09:33:51;18.40;74.20
3075;DHT22;1548;51.716;8.748;2022-10-24T09:36:19;18.40;74.20
3075;DHT22;1548;51.716;8.748;2022-10-24T09:38:45;18.40;74.20
3075;DHT22;1548;51.716;8.748;2022-10-24T09:41:20;18.50;73.90
3075;DHT22;1548;51.716;8.748;2022-10-24T09:43:53;18.60;74.00
3075;DHT22;1548;51.716;8.748;2022-10-24T09:46:46;18.70;74.00
3075;DHT22;1548;51.716;8.748;2022-10-24T09:52:07;18.70;73.50
3075;DHT22;1548;51.716;8.748;2022-10-24T09:54:39;18.70;73.00
3075;DHT22;1548;51.716;8.748;2022-10-24T09:59:57;18.80;72.50
3075;DHT22;1548;51.716;8.748;2022-10-24T10:02:31;18.80;72.60
3075;DHT22;1548;51.716;8.748;2022-10-24T10:07:35;18.80;72.30
3075;DHT22;1548;51.716;8.748;2022-10-24T10:12:44;18.90;72.70
3075;DHT22;1548;51.716;8.748;2022-10-24T10:18:01;19.10;72.70
3075;DHT22;1548;51.716;8.748;2022-10-24T10:20:39;19.10;72.70
3075;DHT22;1548;51.716;8.748;2022-10-24T10:23:27;19.30;72.40
3075;DHT22;1548;51.716;8.748;2022-10-24T10:26:05;19.10;72.00
3075;DHT22;1548;51.716;8.748;2022-10-24T10:28:35;18.90;72.40
3075;DHT22;1548;51.716;8.748;2022-10-24T10:31:01;18.90;72.50
3075;DHT22;1548;51.716;8.748;2022-10-24T10:33:49;18.90;72.30
3075;DHT22;1548;51.716;8.748;2022-10-24T10:36:22;19.00;72.40
3075;DHT22;1548;51.716;8.748;2022-10-24T10:41:48;18.90;72.10
3075;DHT22;1548;51.716;8.748;2022-10-24T10:44:41;18.80;72.50
3075;DHT22;1548;51.716;8.748;2022-10-24T10:50:00;18.70;72.60
3075;DHT22;1548;51.716;8.748;2022-10-24T10:52:31;18.70;72.60
3075;DHT22;1548;51.716;8.748;2022-10-24T11:00:38;18.80;72.30
3075;DHT22;1548;51.716;8.748;2022-10-24T11:03:21;18.70;72.20
3075;DHT22;1548;51.716;8.748;2022-10-24T11:06:11;18.70;72.20
3075;DHT22;1548;51.716;8.748;2022-10-24T11:11:46;18.70;72.30
3075;DHT22;1548;51.716;8.748;2022-10-24T11:16:53;18.80;72.50
3075;DHT22;1548;51.716;8.748;2022-10-24T11:19:52;18.80;72.50
3075;DHT22;1548;51.716;8.748;2022-10-24T11:22:38;18.80;72.50
3075;DHT22;1548;51.716;8.748;2022-10-24T11:25:22;18.80;72.50
3075;DHT22;1548;51.716;8.748;2022-10-24T11:28:25;18.90;72.50
3075;DHT22;1548;51.716;8.748;2022-10-24T11:31:07;18.80;72.40
3075;DHT22;1548;51.716;8.748;2022-10-24T11:33:43;18.80;72.60
3075;DHT22;1548;51.716;8.748;2022-10-24T11:36:35;18.80;72.70
3075;DHT22;1548;51.716;8.748;2022-10-24T11:39:14;18.80;72.70
3075;DHT22;1548;51.716;8.748;2022-10-24T11:41:55;18.90;72.50
3075;DHT22;1548;51.716;8.748;2022-10-24T11:50:06;18.80;72.20
3075;DHT22;1548;51.716;8.748;2022-10-24T11:52:41;18.80;72.20
3075;DHT22;1548;51.716;8.748;2022-10-24T11:55:20;18.70;72.20
3075;DHT22;1548;51.716;8.748;2022-10-24T11:57:50;18.80;72.30
3075;DHT22;1548;51.716;8.748;2022-10-24T12:14:34;18.60;72.20
3075;DHT22;1548;51.716;8.748;2022-10-24T12:19:45;18.60;71.90
3075;DHT22;1548;51.716;8.748;2022-10-24T12:22:18;18.70;71.90
3075;DHT22;1548;51.716;8.748;2022-10-24T12:24:48;18.80;71.70
3075;DHT22;1548;51.716;8.748;2022-10-24T12:29:59;18.40;73.60
3075;DHT22;1548;51.716;8.748;2022-10-24T12:32:38;17.60;76.00
3075;DHT22;1548;51.716;8.748;2022-10-24T12:37:59;17.50;76.90
3075;DHT22;1548;51.716;8.748;2022-10-24T12:43:43;17.60;76.20
3075;DHT22;1548;51.716;8.748;2022-10-24T12:51:32;18.00;76.50
3075;DHT22;1548;51.716;8.748;2022-10-24T12:56:35;18.30;75.80
3075;DHT22;1548;51.716;8.748;2022-10-24T12:59:15;18.40;75.50
3075;DHT22;1548;51.716;8.748;2022-10-24T13:01:42;18.50;75.80
3075;DHT22;1548;51.716;8.748;2022-10-24T13:13:04;18.40;75.70
3075;DHT22;1548;51.716;8.748;2022-10-24T13:23:40;18.50;75.80
3075;DHT22;1548;51.716;8.748;2022-10-24T13:26:06;18.60;76.20
3075;DHT22;1548;51.716;8.748;2022-10-24T13:28:35;18.60;75.60
3075;DHT22;1548;51.716;8.748;2022-10-24T13:39:14;18.90;74.30
3075;DHT22;1548;51.716;8.748;2022-10-24T13:41:44;18.90;73.50
3075;DHT22;1548;51.716;8.748;2022-10-24T13:46:52;19.00;73.40
3075;DHT22;1548;51.716;8.748;2022-10-24T13:49:36;18.90;72.40
3075;DHT22;1548;51.716;8.748;2022-10-24T13:52:08;18.90;72.50
3075;DHT22;1548;51.716;8.748;2022-10-24T13:54:38;19.00;72.60
3075;DHT22;1548;51.716;8.748;2022-10-24T13:57:25;19.00;72.60
3075;DHT22;1548;51.716;8.748;2022-10-24T14:00:00;18.90;72.80
3075;DHT22;1548;51.716;8.748;2022-10-24T14:02:32;18.80;73.10
3075;DHT22;1548;51.716;8.748;2022-10-24T14:04:59;18.70;73.30
3075;DHT22;1548;51.716;8.748;2022-10-24T14:07:28;18.60;73.30
3075;DHT22;1548;51.716;8.748;2022-10-24T14:10:07;18.60;73.40
3075;DHT22;1548;51.716;8.748;2022-10-24T14:12:33;18.50;73.60
3075;DHT22;1548;51.716;8.748;2022-10-24T14:15:01;18.40;73.50
3075;DHT22;1548;51.716;8.748;2022-10-24T14:17:32;18.30;74.40
3075;DHT22;1548;51.716;8.748;2022-10-24T14:20:02;18.30;75.00
3075;DHT22;1548;51.716;8.748;2022-10-24T14:22:40;18.30;75.30
3075;DHT22;1548;51.716;8.748;2022-10-24T14:25:33;18.10;75.60
3075;DHT22;1548;51.716;8.748;2022-10-24T14:28:07;17.70;76.50
3075;DHT22;1548;51.716;8.748;2022-10-24T14:30:33;17.20;77.00
3075;DHT22;1548;51.716;8.748;2022-10-24T14:33:19;16.90;77.70
3075;DHT22;1548;51.716;8.748;2022-10-24T14:35:46;16.60;78.30
3075;DHT22;1548;51.716;8.748;2022-10-24T14:38:13;16.60;78.60
3075;DHT22;1548;51.716;8.748;2022-10-24T14:40:42;16.60;78.90
3075;DHT22;1548;51.716;8.748;2022-10-24T14:43:28;16.60;78.80
3075;DHT22;1548;51.716;8.748;2022-10-24T14:48:36;16.80;79.10
3075;DHT22;1548;51.716;8.748;2022-10-24T14:53:51;17.00;78.70
3075;DHT22;1548;51.716;8.748;2022-10-24T14:56:28;16.90;78.60
3075;DHT22;1548;51.716;8.748;2022-10-24T14:58:56;16.90;78.70
3075;DHT22;1548;51.716;8.748;2022-10-24T15:01:23;16.90;78.80
3075;DHT22;1548;51.716;8.748;2022-10-24T15:04:00;16.90;79.00
3075;DHT22;1548;51.716;8.748;2022-10-24T15:06:37;16.90;79.00
3075;DHT22;1548;51.716;8.748;2022-10-24T15:11:39;17.00;78.30
3075;DHT22;1548;51.716;8.748;2022-10-24T15:14:46;17.00;77.70
3075;DHT22;1548;51.716;8.748;2022-10-24T15:19:42;17.20;76.90
3075;DHT22;1548;51.716;8.748;2022-10-24T15:22:25;17.30;76.90
3075;DHT22;1548;51.716;8.748;2022-10-24T15:24:57;17.20;76.80
3075;DHT22;1548;51.716;8.748;2022-10-24T15:29:51;17.10;76.70
3075;DHT22;1548;51.716;8.748;2022-10-24T15:32:16;17.10;76.60
3075;DHT22;1548;51.716;8.748;2022-10-24T15:34:42;17.00;76.70
3075;DHT22;1548;51.716;8.748;2022-10-24T15:37:19;17.00;76.80
3075;DHT22;1548;51.716;8.748;2022-10-24T15:39:45;17.00;76.90
3075;DHT22;1548;51.716;8.748;2022-10-24T15:42:11;16.90;76.90
3075;DHT22;1548;51.716;8.748;2022-10-24T15:44:36;17.00;76.90
3075;DHT22;1548;51.716;8.748;2022-10-24T15:47:02;16.90;76.80
3075;DHT22;1548;51.716;8.748;2022-10-24T15:49:28;16.90;76.90
3075;DHT22;1548;51.716;8.748;2022-10-24T15:51:56;16.80;77.10
3075;DHT22;1548;51.716;8.748;2022-10-24T15:54:24;16.80;77.00
3075;DHT22;1548;51.716;8.748;2022-10-24T15:56:54;16.80;77.00
3075;DHT22;1548;51.716;8.748;2022-10-24T15:59:19;16.80;77.20
3075;DHT22;1548;51.716;8.748;2022-10-24T16:01:56;16.70;77.10
3075;DHT22;1548;51.716;8.748;2022-10-24T16:04:22;16.70;77.30
3075;DHT22;1548;51.716;8.748;2022-10-24T16:06:49;16.60;77.30
3075;DHT22;1548;51.716;8.748;2022-10-24T16:09:19;16.60;77.40
3075;DHT22;1548;51.716;8.748;2022-10-24T16:11:45;16.60;77.50
3075;DHT22;1548;51.716;8.748;2022-10-24T16:14:14;16.60;77.40
3075;DHT22;1548;51.716;8.748;2022-10-24T16:16:40;16.60;77.50
3075;DHT22;1548;51.716;8.748;2022-10-24T16:19:05;16.50;77.50
3075;DHT22;1548;51.716;8.748;2022-10-24T16:21:33;16.60;77.60
3075;DHT22;1548;51.716;8.748;2022-10-24T16:23:59;16.50;77.50
3075;DHT22;1548;51.716;8.748;2022-10-24T16:26:24;16.50;77.60
3075;DHT22;1548;51.716;8.748;2022-10-24T16:28:50;16.40;77.60
3075;DHT22;1548;51.716;8.748;2022-10-24T16:31:17;16.30;77.70
3075;DHT22;1548;51.716;8.748;2022-10-24T16:33:45;16.30;77.80
3075;DHT22;1548;51.716;8.748;2022-10-24T16:36:11;16.20;77.90
3075;DHT22;1548;51.716;8.748;2022-10-24T16:38:37;16.20;78.10
3075;DHT22;1548;51.716;8.748;2022-10-24T16:41:03;16.10;78.20
3075;DHT22;1548;51.716;8.748;2022-10-24T16:43:28;16.20;78.20
3075;DHT22;1548;51.716;8.748;2022-10-24T16:46:01;16.10;78.30
3075;DHT22;1548;51.716;8.748;2022-10-24T16:48:28;16.20;78.20
3075;DHT22;1548;51.716;8.748;2022-10-24T16:50:54;16.10;78.10
3075;DHT22;1548;51.716;8.748;2022-10-24T16:53:20;16.10;78.20
3075;DHT22;1548;51.716;8.748;2022-10-24T16:55:47;16.20;78.20
3075;DHT22;1548;51.716;8.748;2022-10-24T16:58:14;16.20;78.00
3075;DHT22;1548;51.716;8.748;2022-10-24T17:00:40;16.20;78.00
3075;DHT22;1548;51.716;8.748;2022-10-24T17:03:05;16.30;78.00
3075;DHT22;1548;51.716;8.748;2022-10-24T17:05:31;16.30;77.90
3075;DHT22;1548;51.716;8.748;2022-10-24T17:07:57;16.30;77.90
3075;DHT22;1548;51.716;8.748;2022-10-24T17:10:22;16.30;77.90
3075;DHT22;1548;51.716;8.748;2022-10-24T17:12:48;16.30;77.90
3075;DHT22;1548;51.716;8.748;2022-10-24T17:15:15;16.30;77.90
3075;DHT22;1548;51.716;8.748;2022-10-24T17:17:41;16.30;77.80
3075;DHT22;1548;51.716;8.748;2022-10-24T17:20:07;16.30;77.80
3075;DHT22;1548;51.716;8.748;2022-10-24T17:22:35;16.30;77.80
3075;DHT22;1548;51.716;8.748;2022-10-24T17:25:01;16.30;77.80
3075;DHT22;1548;51.716;8.748;2022-10-24T17:27:27;16.30;77.70
3075;DHT22;1548;51.716;8.748;2022-10-24T17:29:52;16.30;77.60
3075;DHT22;1548;51.716;8.748;2022-10-24T17:32:18;16.20;77.70
3075;DHT22;1548;51.716;8.748;2022-10-24T17:34:44;16.10;78.00
3075;DHT22;1548;51.716;8.748;2022-10-24T17:40:14;16.00;78.30
3075;DHT22;1548;51.716;8.748;2022-10-24T17:42:41;16.00;78.40
3075;DHT22;1548;51.716;8.748;2022-10-24T17:45:25;16.00;78.80
3075;DHT22;1548;51.716;8.748;2022-10-24T17:47:51;16.00;78.90
3075;DHT22;1548;51.716;8.748;2022-10-24T17:50:17;16.00;79.00
3075;DHT22;1548;51.716;8.748;2022-10-24T17:52:43;16.00;79.10
3075;DHT22;1548;51.716;8.748;2022-10-24T17:55:20;15.80;79.30
3075;DHT22;1548;51.716;8.748;2022-10-24T17:57:46;15.80;79.50
3075;DHT22;1548;51.716;8.748;2022-10-24T18:00:12;15.80;79.60
3075;DHT22;1548;51.716;8.748;2022-10-24T18:02:50;15.70;79.70
3075;DHT22;1548;51.716;8.748;2022-10-24T18:05:18;15.70;80.10
3075;DHT22;1548;51.716;8.748;2022-10-24T18:07:44;15.80;80.10
3075;DHT22;1548;51.716;8.748;2022-10-24T18:10:10;15.70;80.10
3075;DHT22;1548;51.716;8.748;2022-10-24T18:12:37;15.60;80.20
3075;DHT22;1548;51.716;8.748;2022-10-24T18:15:05;15.50;80.50
3075;DHT22;1548;51.716;8.748;2022-10-24T18:17:31;15.40;80.50
3075;DHT22;1548;51.716;8.748;2022-10-24T18:19:57;15.30;80.60
3075;DHT22;1548;51.716;8.748;2022-10-24T18:22:23;15.20;80.90
3075;DHT22;1548;51.716;8.748;2022-10-24T18:24:49;15.10;80.90
3075;DHT22;1548;51.716;8.748;2022-10-24T18:27:14;15.10;81.20
3075;DHT22;1548;51.716;8.748;2022-10-24T18:29:40;15.00;80.80
3075;DHT22;1548;51.716;8.748;2022-10-24T18:32:05;15.00;81.10
3075;DHT22;1548;51.716;8.748;2022-10-24T18:34:32;14.90;81.20
3075;DHT22;1548;51.716;8.748;2022-10-24T18:36:58;14.90;81.10
3075;DHT22;1548;51.716;8.748;2022-10-24T18:39:23;14.90;81.20